Terminal Aerodrome Forecast
Issued by NWS

Home | Current Version | Previous Version | Text Only | Print | Product List | Glossary On
Versions: 1 2 3 4 5 6 7 8 9 10 11 12 13 14 15 16 17 18 19 20 21 22 23 24 25 26 27 28 29 30 31 32 33 34 35 36 37 38 39 40 41 42
000
FTUS41 KBOX 300524
TAFBED
TAF
KBED 300524Z 3006/3106 20005KT P6SM SCT250
     FM301100 20008KT P6SM BKN110
     FM301700 21010G18KT P6SM OVC025
      TEMPO 3017/3020 4SM -SHRA OVC015
     FM302200 23010KT P6SM BKN050
     FM310300 26007KT P6SM SCT080=

USA.gov is the U.S. government's official web portal to all federal, state and local government web resources and services.